Terminal Aerodrome Forecast
Issued by NWS Jackson, KY

Home | Current Version | Previous Version | Text Only | Print | Product List | Glossary On
Versions: 1 2 3 4 5 6 7 8 9 10 11 12 13 14 15 16 17 18 19
000
FTUS43 KJKL 081700
TAFJKL
TAF
KJKL 081732Z 0818/0918 23010G20KT P6SM VCTS SCT035CB BKN100
      TEMPO 0820/0824 2SM +TSRA SCT025 BKN030CB OVC050
     FM090000 24007KT P6SM VCTS SCT030CB BKN050
     FM090800 25004KT 6SM BR BKN015 OVC030
     FM091500 26007KT P6SM SCT020 BKN035=

USA.gov is the U.S. government's official web portal to all federal, state and local government web resources and services.